createdAt,value
2023-02-05T10:21:44.869Z,2.30
2023-02-05T10:26:47.880Z,2.40
2023-02-05T10:31:45.228Z,2.40
2023-02-05T10:36:40.185Z,2.50
2023-02-05T10:41:39.830Z,2.70
2023-02-05T10:46:36.951Z,2.90
2023-02-05T10:51:35.108Z,3.00
2023-02-05T10:56:30.096Z,3.30
2023-02-05T11:01:32.022Z,3.70
2023-02-05T11:06:29.592Z,4.10
2023-02-05T11:11:25.932Z,4.50
2023-02-05T11:16:21.893Z,4.70
2023-02-05T11:21:15.462Z,4.80
2023-02-05T11:26:11.472Z,5.00
2023-02-05T11:36:26.707Z,5.40
2023-02-05T11:41:29.547Z,6.10
2023-02-05T11:46:26.161Z,6.20
2023-02-05T11:51:40.496Z,6.60
2023-02-05T11:56:35.302Z,7.00
2023-02-05T12:01:32.389Z,7.40
2023-02-05T12:06:31.282Z,7.70
2023-02-05T12:12:06.562Z,7.70
2023-02-05T12:17:07.244Z,8.10
2023-02-05T12:22:07.663Z,8.20
2023-02-05T12:27:31.532Z,8.50
2023-02-05T12:32:40.457Z,8.60
2023-02-05T12:37:45.794Z,9.00
2023-02-05T12:43:02.021Z,9.20
2023-02-05T12:48:16.059Z,9.20
2023-02-05T12:53:28.938Z,9.40
2023-02-05T12:58:29.927Z,9.10
2023-02-05T13:03:30.196Z,8.90
2023-02-05T13:08:38.707Z,8.90
2023-02-05T13:13:41.471Z,8.90
2023-02-05T13:18:51.940Z,9.30
2023-02-05T13:24:05.649Z,10.10
2023-02-05T13:29:15.173Z,10.50
2023-02-05T13:34:11.068Z,11.10
2023-02-05T13:39:26.415Z,11.70
2023-02-05T13:45:08.304Z,12.10
2023-02-05T13:50:44.042Z,12.80
2023-02-05T13:56:18.977Z,13.10
2023-02-05T14:01:23.481Z,13.80
2023-02-05T14:06:23.386Z,13.60
2023-02-05T14:11:17.353Z,14.20
2023-02-05T14:16:38.370Z,14.00
2023-02-05T14:22:04.747Z,14.30
2023-02-05T14:27:00.880Z,14.40
2023-02-05T14:31:56.183Z,15.20
2023-02-05T14:36:50.119Z,15.20
2023-02-05T14:41:55.312Z,14.60
2023-02-05T14:46:59.824Z,12.60
2023-02-05T14:52:00.479Z,9.20
2023-02-05T14:57:12.523Z,7.40
2023-02-05T15:02:53.134Z,6.50
2023-02-05T21:28:42.735Z,-2.80
2023-02-05T21:33:37.232Z,-2.90
2023-02-05T21:38:32.127Z,-2.90
2023-02-05T21:43:25.880Z,-2.90
2023-02-05T21:48:23.773Z,-3.00
2023-02-05T21:53:18.959Z,-3.00
2023-02-05T21:58:12.801Z,-3.00
2023-02-05T22:03:06.796Z,-3.00
2023-02-05T22:08:04.875Z,-3.00
2023-02-05T22:13:00.258Z,-3.20
2023-02-05T22:17:56.217Z,-3.20
2023-02-05T22:22:50.133Z,-3.30
2023-02-05T22:27:46.357Z,-3.30
2023-02-05T22:32:42.472Z,-3.30
2023-02-05T22:37:36.055Z,-3.50
2023-02-05T22:42:29.673Z,-3.40
2023-02-05T22:47:25.656Z,-3.40
2023-02-05T22:52:21.437Z,-3.50
2023-02-05T22:57:15.683Z,-3.60
2023-02-05T23:02:09.301Z,-3.60
2023-02-05T23:07:04.768Z,-3.70
